createdAt,value
2022-08-12T00:01:10.702Z,21.50
2022-08-12T00:03:59.786Z,21.50
2022-08-12T00:06:47.330Z,21.50
2022-08-12T00:09:33.638Z,21.60
2022-08-12T00:12:20.969Z,21.50
2022-08-12T00:15:08.228Z,21.50
2022-08-12T00:17:54.795Z,21.50
2022-08-12T00:20:40.725Z,21.50
2022-08-12T00:23:26.819Z,21.50
2022-08-12T00:26:23.294Z,21.40
2022-08-12T00:29:12.510Z,21.40
2022-08-12T00:32:00.094Z,21.40
2022-08-12T00:34:48.540Z,21.50
2022-08-12T00:37:34.940Z,21.50
2022-08-12T00:40:23.492Z,21.40
2022-08-12T00:42:51.382Z,21.30
2022-08-12T00:45:20.721Z,21.30
2022-08-12T00:47:49.442Z,21.30
2022-08-12T00:50:19.909Z,21.30
2022-08-12T00:52:48.528Z,21.30
2022-08-12T00:55:17.136Z,21.10
2022-08-12T00:57:47.731Z,21.10
2022-08-12T01:00:18.783Z,20.90
2022-08-12T01:02:51.593Z,20.90
2022-08-12T01:05:39.472Z,20.80
2022-08-12T01:08:25.290Z,20.90
2022-08-12T01:11:13.023Z,20.80
2022-08-12T01:13:42.471Z,20.70
2022-08-12T01:16:12.398Z,20.70
2022-08-12T01:18:40.612Z,20.70
2022-08-12T01:21:13.630Z,20.60
2022-08-12T01:24:30.159Z,20.70
2022-08-12T01:26:57.234Z,20.70
2022-08-12T01:29:27.483Z,20.70
2022-08-12T01:32:05.524Z,20.60
2022-08-12T01:34:38.821Z,20.60
2022-08-12T01:37:08.306Z,20.50
2022-08-12T01:40:36.990Z,20.40
2022-08-12T01:42:32.061Z,20.40
2022-08-12T01:45:00.375Z,20.40
2022-08-12T01:47:57.472Z,20.30
2022-08-12T01:50:32.266Z,20.20
2022-08-12T01:53:05.599Z,20.10
2022-08-12T01:55:37.472Z,20.10
2022-08-12T01:58:18.046Z,20.20
2022-08-12T02:00:56.407Z,20.20
2022-08-12T02:03:58.072Z,20.30
2022-08-12T02:06:52.191Z,20.20
2022-08-12T02:09:44.408Z,20.20
2022-08-12T02:12:27.584Z,20.20
2022-08-12T02:15:07.472Z,20.20
2022-08-12T02:17:56.604Z,20.10
2022-08-12T02:20:43.855Z,20.00
2022-08-12T02:23:19.341Z,20.00
2022-08-12T02:25:47.753Z,20.00
2022-08-12T02:28:14.894Z,19.90
2022-08-12T02:30:43.982Z,19.90
2022-08-12T02:33:11.861Z,19.90
2022-08-12T02:35:39.989Z,19.90
2022-08-12T02:38:09.732Z,19.90
2022-08-12T02:40:38.775Z,19.90
2022-08-12T02:43:14.522Z,19.80
2022-08-12T02:45:48.307Z,19.70
2022-08-12T02:48:19.825Z,19.70
2022-08-12T02:50:52.121Z,19.80
2022-08-12T02:53:19.829Z,19.90
2022-08-12T02:55:46.832Z,19.90
2022-08-12T02:58:14.916Z,19.80
2022-08-12T03:00:44.466Z,19.80
2022-08-12T03:03:14.151Z,19.80
2022-08-12T03:05:48.571Z,19.80
2022-08-12T03:08:31.551Z,19.70
2022-08-12T03:11:03.427Z,19.70
2022-08-12T03:13:33.641Z,19.60
2022-08-12T03:16:02.055Z,19.70
2022-08-12T03:18:31.661Z,19.70
2022-08-12T03:21:00.270Z,19.60
2022-08-12T03:23:31.092Z,19.60
2022-08-12T03:25:59.415Z,19.50
2022-08-12T03:28:47.184Z,19.40
2022-08-12T03:31:15.367Z,19.30
2022-08-12T03:34:00.725Z,19.30
2022-08-12T03:36:30.516Z,19.40
2022-08-12T03:39:17.492Z,19.40
2022-08-12T03:41:52.966Z,19.40
2022-08-12T03:44:45.899Z,19.40
2022-08-12T03:47:38.045Z,19.50
2022-08-12T03:50:24.549Z,19.50
2022-08-12T03:53:10.358Z,19.50
2022-08-12T03:55:55.822Z,19.50
2022-08-12T03:58:41.606Z,19.40
2022-08-12T04:01:08.719Z,19.20
2022-08-12T04:03:52.762Z,19.10
2022-08-12T04:06:34.266Z,19.10
2022-08-12T04:09:05.171Z,19.00
2022-08-12T04:12:00.739Z,19.00
2022-08-12T04:14:28.457Z,19.00
2022-08-12T04:16:57.264Z,18.90
2022-08-12T04:19:26.666Z,18.90
2022-08-12T04:22:02.429Z,18.90
2022-08-12T04:24:32.185Z,18.90
2022-08-12T04:26:59.359Z,18.90
2022-08-12T04:30:32.062Z,18.90
2022-08-12T04:32:15.565Z,18.90
2022-08-12T04:34:44.722Z,18.90
2022-08-12T04:37:12.581Z,18.90
2022-08-12T04:39:40.505Z,19.00
2022-08-12T04:42:07.603Z,19.00
2022-08-12T04:44:34.759Z,19.00
2022-08-12T04:47:02.102Z,19.10
2022-08-12T04:49:30.581Z,19.10
2022-08-12T04:52:00.325Z,19.10
2022-08-12T04:54:27.885Z,19.10
2022-08-12T04:57:04.125Z,19.00
2022-08-12T04:59:48.014Z,19.00
2022-08-12T05:02:21.183Z,19.00
2022-08-12T05:04:51.205Z,19.00
2022-08-12T05:07:20.050Z,19.10
2022-08-12T05:09:58.872Z,19.10
2022-08-12T05:12:33.978Z,19.10
2022-08-12T05:15:01.357Z,19.10
2022-08-12T05:17:28.509Z,19.10
2022-08-12T05:19:57.477Z,19.20
2022-08-12T05:22:26.606Z,19.20
2022-08-12T05:24:53.494Z,19.30
2022-08-12T05:27:22.757Z,19.30
2022-08-12T05:30:07.786Z,19.30
2022-08-12T05:32:36.377Z,19.40
2022-08-12T05:35:07.165Z,19.50
2022-08-12T05:37:35.963Z,19.50
2022-08-12T05:40:10.655Z,19.50
2022-08-12T05:42:38.608Z,19.60
2022-08-12T05:45:06.485Z,19.70
2022-08-12T05:47:53.092Z,19.60
2022-08-12T05:50:20.744Z,19.70
2022-08-12T05:52:49.202Z,19.80
2022-08-12T05:55:16.893Z,19.90
2022-08-12T05:57:49.129Z,19.90
2022-08-12T06:00:17.321Z,20.00
2022-08-12T06:02:46.412Z,20.10
2022-08-12T06:05:14.298Z,20.10
2022-08-12T06:08:01.185Z,20.20
2022-08-12T06:10:32.343Z,20.30
2022-08-12T06:13:00.183Z,20.40
2022-08-12T06:15:27.459Z,20.40
2022-08-12T06:17:55.684Z,20.70
2022-08-12T06:20:29.821Z,20.70
2022-08-12T06:22:57.178Z,20.80
2022-08-12T06:25:27.750Z,20.90
2022-08-12T06:28:07.624Z,21.00
2022-08-12T06:30:39.087Z,21.10
2022-08-12T06:33:22.202Z,21.20
2022-08-12T06:35:51.297Z,21.30
2022-08-12T06:38:21.613Z,21.40
2022-08-12T06:41:10.753Z,21.50
2022-08-12T06:44:06.521Z,21.70
2022-08-12T06:46:28.740Z,21.90
2022-08-12T06:48:59.505Z,22.00
2022-08-12T06:51:28.479Z,22.10
2022-08-12T06:53:56.334Z,22.10
2022-08-12T06:56:39.824Z,22.20
2022-08-12T06:59:14.992Z,22.20
2022-08-12T07:01:50.688Z,22.30
2022-08-12T07:07:08.030Z,22.50
2022-08-12T07:10:05.321Z,22.60
2022-08-12T07:12:22.209Z,22.60
2022-08-12T07:14:51.872Z,22.80
2022-08-12T07:17:18.944Z,22.90
2022-08-12T07:19:48.651Z,22.90
2022-08-12T07:22:16.183Z,23.00
2022-08-12T07:24:43.130Z,23.10
2022-08-12T07:27:10.238Z,23.20
2022-08-12T07:30:02.655Z,23.20
2022-08-12T07:32:25.942Z,23.30
2022-08-12T07:34:56.825Z,23.40
2022-08-12T07:37:23.711Z,23.50
2022-08-12T07:40:00.595Z,23.60
2022-08-12T07:42:28.070Z,23.70
2022-08-12T07:44:55.946Z,23.80
2022-08-12T07:47:23.106Z,23.80
2022-08-12T07:50:06.290Z,23.90
2022-08-12T07:52:34.137Z,24.00
2022-08-12T07:55:01.416Z,24.10
2022-08-12T07:57:28.400Z,24.10
2022-08-12T07:59:55.939Z,24.20
2022-08-12T08:02:26.791Z,24.30
2022-08-12T08:04:58.228Z,24.40
2022-08-12T08:07:27.704Z,24.50
2022-08-12T08:09:59.468Z,24.50
2022-08-12T08:12:46.925Z,24.60
2022-08-12T08:15:15.953Z,24.60
2022-08-12T08:17:56.536Z,24.60
2022-08-12T08:20:29.145Z,24.60
2022-08-12T08:22:57.512Z,24.60
2022-08-12T08:25:36.591Z,24.60
2022-08-12T08:28:08.243Z,24.80
2022-08-12T08:30:38.326Z,24.60
2022-08-12T08:33:22.956Z,24.70
2022-08-12T08:35:54.368Z,24.70
2022-08-12T08:38:33.304Z,24.80
2022-08-12T08:42:16.941Z,24.80
2022-08-12T08:44:10.623Z,24.80
2022-08-12T08:46:38.489Z,24.90
2022-08-12T08:49:05.792Z,24.90
2022-08-12T08:51:34.668Z,25.00
2022-08-12T08:54:01.585Z,25.30
2022-08-12T08:56:31.244Z,25.20
2022-08-12T08:58:58.788Z,25.20
2022-08-12T09:01:25.825Z,25.30
2022-08-12T09:05:08.166Z,25.40
2022-08-12T09:06:53.393Z,25.50
2022-08-12T09:09:21.234Z,25.50
2022-08-12T09:12:12.096Z,25.50
2022-08-12T09:14:47.084Z,25.60
2022-08-12T09:17:22.213Z,25.50
2022-08-12T09:19:55.224Z,25.50
2022-08-12T09:22:29.240Z,25.60
2022-08-12T09:25:25.558Z,25.70
2022-08-12T09:28:03.941Z,25.80
2022-08-12T09:30:42.281Z,25.90
2022-08-12T09:33:14.667Z,25.90
2022-08-12T09:35:46.227Z,26.00
2022-08-12T09:38:27.835Z,26.10
2022-08-12T09:42:07.686Z,26.10
2022-08-12T09:44:06.323Z,26.30
2022-08-12T09:46:53.846Z,26.40
2022-08-12T09:49:23.931Z,26.50
2022-08-12T09:51:55.808Z,26.50
2022-08-12T09:54:33.813Z,26.40
2022-08-12T09:58:46.524Z,26.50
2022-08-12T10:00:13.023Z,26.60
2022-08-12T10:02:59.834Z,26.50
2022-08-12T10:06:19.866Z,26.40
2022-08-12T10:08:16.613Z,26.50
2022-08-12T10:11:05.866Z,26.70
2022-08-12T10:13:43.784Z,26.70
2022-08-12T10:16:21.790Z,26.90
2022-08-12T10:18:52.868Z,26.90
2022-08-12T10:21:23.153Z,26.90
2022-08-12T10:23:56.781Z,27.00
2022-08-12T10:26:44.681Z,26.90
2022-08-12T10:30:03.513Z,26.90
2022-08-12T10:32:43.673Z,26.90
2022-08-12T10:35:09.269Z,27.00
2022-08-12T10:38:38.614Z,27.10
2022-08-12T10:40:28.711Z,27.00
2022-08-12T10:43:18.919Z,27.10
2022-08-12T10:45:49.541Z,27.10
2022-08-12T10:48:21.711Z,27.10
2022-08-12T10:51:01.917Z,27.20
2022-08-12T10:53:45.613Z,27.30
2022-08-12T10:56:15.256Z,27.40
2022-08-12T10:58:46.315Z,27.30
2022-08-12T11:04:15.133Z,27.30
2022-08-12T11:04:32.105Z,27.30
2022-08-12T11:07:06.995Z,27.40
2022-08-12T11:09:54.378Z,27.50
2022-08-12T11:12:56.505Z,27.60
2022-08-12T11:15:18.637Z,27.60
2022-08-12T11:17:52.825Z,27.70
2022-08-12T11:20:23.924Z,27.70
2022-08-12T11:22:57.802Z,27.80
2022-08-12T11:25:56.553Z,27.90
2022-08-12T11:28:14.349Z,27.90
2022-08-12T11:30:43.472Z,28.10
2022-08-12T11:33:12.156Z,28.30
2022-08-12T11:35:43.657Z,28.30
2022-08-12T11:38:10.870Z,28.30
2022-08-12T11:40:42.507Z,28.40
2022-08-12T11:43:18.790Z,28.50
2022-08-12T11:45:53.012Z,28.60
2022-08-12T11:48:27.067Z,28.80
2022-08-12T11:50:55.023Z,28.90
2022-08-12T11:53:58.283Z,28.90
2022-08-12T11:56:11.288Z,29.10
2022-08-12T12:01:58.882Z,29.30
2022-08-12T12:02:02.557Z,29.40
2022-08-12T12:04:28.781Z,29.50
2022-08-12T12:07:07.198Z,29.80
2022-08-12T12:09:52.899Z,30.00
2022-08-12T12:12:22.346Z,30.10
2022-08-12T12:14:55.079Z,30.30
2022-08-12T12:17:25.449Z,30.30
2022-08-12T12:19:53.059Z,30.50
2022-08-12T12:22:23.504Z,30.60
2022-08-12T12:25:13.241Z,30.90
2022-08-12T12:28:05.118Z,30.90
2022-08-12T12:30:33.075Z,31.10
2022-08-12T12:33:01.565Z,31.10
2022-08-12T12:36:05.827Z,31.30
2022-08-12T12:38:38.520Z,31.30
2022-08-12T12:41:16.262Z,31.40
2022-08-12T12:43:56.605Z,31.50
2022-08-12T12:46:36.195Z,31.70
2022-08-12T12:49:10.843Z,32.00
2022-08-12T12:52:18.748Z,31.70
2022-08-12T12:54:38.490Z,31.60
2022-08-12T12:57:09.482Z,31.80
2022-08-12T13:00:08.671Z,31.90
2022-08-12T13:02:41.489Z,31.90
2022-08-12T13:05:18.050Z,32.10
2022-08-12T13:08:01.859Z,32.00
2022-08-12T13:10:37.119Z,32.00
2022-08-12T13:14:09.179Z,32.30
2022-08-12T13:15:59.446Z,32.50
2022-08-12T13:18:36.686Z,32.00
2022-08-12T13:21:23.579Z,32.30
2022-08-12T13:24:09.563Z,32.60
2022-08-12T13:26:41.623Z,33.10
2022-08-12T13:29:11.528Z,33.20
2022-08-12T13:32:17.349Z,33.30
2022-08-12T13:34:34.197Z,33.70
2022-08-12T13:37:09.791Z,33.80
2022-08-12T13:39:43.600Z,33.80
2022-08-12T13:42:14.937Z,33.50
2022-08-12T13:44:43.575Z,33.40
2022-08-12T13:47:19.754Z,33.30
2022-08-12T13:49:53.575Z,33.40
2022-08-12T13:52:23.901Z,33.70
2022-08-12T13:54:55.828Z,34.00
2022-08-12T13:57:26.392Z,34.00
2022-08-12T14:00:00.438Z,34.20
2022-08-12T14:02:29.020Z,34.10
2022-08-12T14:04:57.039Z,34.50
2022-08-12T14:07:27.429Z,34.50
2022-08-12T14:10:16.311Z,34.60
2022-08-12T14:12:54.264Z,34.90
2022-08-12T14:15:35.657Z,35.00
2022-08-12T14:18:09.637Z,35.10
2022-08-12T14:20:41.796Z,35.30
2022-08-12T14:24:01.275Z,35.50
2022-08-12T14:26:02.499Z,35.10
2022-08-12T14:28:32.816Z,35.10
2022-08-12T14:31:01.456Z,35.30
2022-08-12T14:33:44.279Z,35.10
2022-08-12T14:36:16.874Z,34.80
2022-08-12T14:38:47.479Z,34.70
2022-08-12T14:41:18.391Z,34.80
2022-08-12T14:44:04.784Z,34.60
2022-08-12T14:46:43.845Z,35.00
2022-08-12T14:50:01.297Z,35.10
2022-08-12T14:53:11.529Z,35.00
2022-08-12T14:58:00.046Z,34.10
2022-08-12T15:00:54.488Z,34.10
2022-08-12T15:03:52.929Z,34.30
2022-08-12T15:06:39.861Z,34.50
2022-08-12T15:09:16.344Z,34.60
2022-08-12T15:11:55.424Z,34.70
2022-08-12T15:14:30.388Z,34.90
2022-08-12T15:17:02.488Z,35.20
2022-08-12T15:20:30.721Z,35.00
2022-08-12T15:22:37.787Z,35.00
2022-08-12T15:25:07.538Z,34.60
2022-08-12T15:28:05.171Z,35.00
2022-08-12T15:30:34.217Z,35.50
2022-08-12T15:33:15.659Z,35.90
2022-08-12T15:35:50.152Z,35.30
2022-08-12T15:38:24.681Z,35.30
2022-08-12T15:40:57.551Z,35.50
2022-08-12T15:44:16.104Z,36.00
2022-08-12T15:46:32.694Z,36.10
2022-08-12T15:49:03.238Z,36.30
2022-08-12T15:51:58.349Z,36.80
2022-08-12T15:54:39.889Z,37.00
2022-08-12T15:57:16.838Z,37.00
2022-08-12T16:00:07.021Z,36.80
2022-08-12T16:02:51.796Z,36.20
2022-08-12T16:06:11.322Z,36.10
2022-08-12T16:08:30.713Z,36.00
2022-08-12T16:11:14.816Z,35.90
2022-08-12T16:13:56.438Z,35.80
2022-08-12T16:16:48.586Z,35.70
2022-08-12T16:20:02.651Z,35.70
2022-08-12T16:22:26.594Z,35.70
2022-08-12T16:25:00.909Z,35.60
2022-08-12T16:27:42.782Z,35.60
2022-08-12T16:30:12.741Z,35.70
2022-08-12T16:32:53.749Z,35.70
2022-08-12T16:35:33.364Z,35.70
2022-08-12T16:38:27.776Z,36.00
2022-08-12T16:41:10.695Z,36.00
2022-08-12T16:43:44.284Z,35.60
2022-08-12T16:46:35.693Z,34.80
2022-08-12T16:49:14.095Z,34.40
2022-08-12T16:52:51.984Z,33.90
2022-08-12T16:55:27.117Z,33.60
2022-08-12T16:58:30.512Z,33.40
2022-08-12T17:01:21.970Z,33.10
2022-08-12T17:04:27.222Z,33.30
2022-08-12T17:10:35.957Z,32.20
2022-08-12T17:13:53.619Z,31.80
2022-08-12T17:16:30.315Z,31.50
2022-08-12T17:19:09.145Z,31.30
2022-08-12T17:22:05.037Z,31.00
2022-08-12T17:24:55.661Z,30.70
2022-08-12T17:27:46.545Z,30.40
2022-08-12T17:30:38.994Z,30.20
2022-08-12T17:33:17.161Z,30.00
2022-08-12T17:35:54.307Z,29.90
2022-08-12T17:38:22.903Z,29.90
2022-08-12T17:41:22.384Z,29.70
2022-08-12T17:43:58.118Z,29.60
2022-08-12T17:46:33.678Z,29.50
2022-08-12T17:49:19.285Z,29.30
2022-08-12T17:52:02.380Z,29.20
2022-08-12T17:54:33.814Z,29.20
2022-08-12T17:57:16.438Z,29.00
2022-08-12T17:59:49.030Z,29.00
2022-08-12T18:02:29.963Z,29.00
2022-08-12T18:05:05.212Z,28.90
2022-08-12T18:07:45.957Z,28.80
2022-08-12T18:10:43.042Z,28.80
2022-08-12T18:13:34.623Z,28.80
2022-08-12T18:16:12.656Z,28.70
2022-08-12T18:18:50.059Z,28.60
2022-08-12T18:21:26.522Z,28.50
2022-08-12T18:24:21.714Z,28.50
2022-08-12T18:27:29.976Z,28.30
2022-08-12T18:30:01.859Z,28.30
2022-08-12T18:32:58.429Z,28.30
2022-08-12T18:35:46.485Z,28.20
2022-08-12T18:38:16.829Z,28.20
2022-08-12T18:41:06.123Z,28.00
2022-08-12T18:43:39.065Z,27.90
2022-08-12T18:46:29.190Z,27.90
2022-08-12T18:49:16.740Z,27.90
2022-08-12T18:51:49.263Z,27.90
2022-08-12T18:54:21.646Z,27.80
2022-08-12T18:56:49.775Z,27.80
2022-08-12T19:00:02.371Z,27.70
2022-08-12T19:02:20.686Z,27.60
2022-08-12T19:04:53.233Z,27.50
2022-08-12T19:07:23.328Z,27.50
2022-08-12T19:09:59.162Z,27.50
2022-08-12T19:12:55.472Z,27.40
2022-08-12T19:15:26.035Z,27.30
2022-08-12T19:17:56.678Z,27.20
2022-08-12T19:20:34.121Z,27.20
2022-08-12T19:23:08.152Z,27.20
2022-08-12T19:26:00.605Z,27.10
2022-08-12T19:28:34.685Z,27.10
2022-08-12T19:31:44.740Z,27.00
2022-08-12T19:37:15.759Z,26.90
2022-08-12T19:40:07.742Z,26.80
2022-08-12T19:42:32.803Z,26.70
2022-08-12T19:45:04.953Z,26.60
2022-08-12T19:47:39.001Z,26.60
2022-08-12T19:50:11.256Z,26.50
2022-08-12T19:52:39.653Z,26.50
2022-08-12T19:55:11.485Z,26.40
2022-08-12T19:58:01.402Z,26.20
2022-08-12T20:00:32.083Z,26.20
2022-08-12T20:03:04.413Z,26.20
2022-08-12T20:06:05.723Z,26.20
2022-08-12T20:08:33.116Z,26.20
2022-08-12T20:12:13.712Z,26.10
2022-08-12T20:14:00.351Z,26.10
2022-08-12T20:16:52.301Z,25.90
2022-08-12T20:19:17.780Z,25.80
2022-08-12T20:21:46.341Z,25.80
2022-08-12T20:24:14.440Z,25.70
2022-08-12T20:26:42.549Z,25.60
2022-08-12T20:29:11.943Z,25.60
2022-08-12T20:31:40.203Z,25.50
2022-08-12T20:34:09.290Z,25.50
2022-08-12T20:36:44.982Z,25.40
2022-08-12T20:39:33.882Z,25.30
2022-08-12T20:42:07.150Z,25.30
2022-08-12T20:44:38.807Z,25.10
2022-08-12T20:47:18.243Z,25.10
2022-08-12T20:49:54.944Z,25.00
2022-08-12T20:52:29.864Z,25.10
2022-08-12T20:54:58.568Z,25.00
2022-08-12T20:57:37.427Z,25.10
2022-08-12T21:00:18.005Z,25.10
2022-08-12T21:02:50.420Z,25.00
2022-08-12T21:06:12.281Z,24.90
2022-08-12T21:08:26.806Z,24.90
2022-08-12T21:10:58.902Z,24.80
2022-08-12T21:13:27.031Z,24.80
2022-08-12T21:15:58.981Z,24.80
2022-08-12T21:18:28.650Z,24.80
2022-08-12T21:20:58.780Z,24.80
2022-08-12T21:23:30.767Z,24.60
2022-08-12T21:26:11.336Z,24.50
2022-08-12T21:28:58.889Z,24.40
2022-08-12T21:32:37.500Z,24.30
2022-08-12T21:34:19.961Z,24.30
2022-08-12T21:36:50.378Z,24.10
2022-08-12T21:39:23.361Z,24.10
2022-08-12T21:41:56.516Z,24.00
2022-08-12T21:45:46.784Z,24.00
2022-08-12T21:47:21.053Z,24.00
2022-08-12T21:49:55.323Z,24.00
2022-08-12T21:52:34.283Z,24.00
2022-08-12T21:55:02.686Z,23.90
2022-08-12T21:57:36.552Z,23.70
2022-08-12T22:00:19.239Z,23.60
2022-08-12T22:03:05.098Z,23.60
2022-08-12T22:05:53.927Z,23.70
2022-08-12T22:08:22.044Z,23.60
2022-08-12T22:10:52.264Z,23.60
2022-08-12T22:14:04.062Z,23.50
2022-08-12T22:16:08.246Z,23.50
2022-08-12T22:18:37.547Z,23.60
2022-08-12T22:21:05.262Z,23.60
2022-08-12T22:24:04.412Z,23.50
2022-08-12T22:26:29.232Z,23.50
2022-08-12T22:29:27.391Z,23.50
2022-08-12T22:31:55.193Z,23.50
2022-08-12T22:34:22.246Z,23.50
2022-08-12T22:36:57.328Z,23.40
2022-08-12T22:39:26.428Z,23.10
2022-08-12T22:42:12.373Z,23.10
2022-08-12T22:44:59.044Z,23.10
2022-08-12T22:47:53.127Z,23.00
2022-08-12T22:50:27.681Z,22.90
2022-08-12T22:53:14.230Z,22.80
2022-08-12T22:56:06.201Z,22.60
2022-08-12T22:58:32.030Z,22.40
2022-08-12T23:01:02.385Z,22.40
2022-08-12T23:03:48.601Z,22.40
2022-08-12T23:06:20.062Z,22.30
2022-08-12T23:08:48.024Z,22.40
2022-08-12T23:11:16.101Z,22.40
2022-08-12T23:13:49.014Z,22.40
2022-08-12T23:16:33.750Z,22.40
2022-08-12T23:19:09.989Z,22.30
2022-08-12T23:22:06.421Z,22.30
2022-08-12T23:24:53.869Z,22.30
2022-08-12T23:27:50.792Z,22.30
2022-08-12T23:30:25.142Z,22.30
2022-08-12T23:33:01.783Z,22.30
2022-08-12T23:35:45.854Z,22.30
2022-08-12T23:38:31.096Z,22.40
2022-08-12T23:41:00.871Z,22.40
2022-08-12T23:43:38.988Z,22.40
2022-08-12T23:46:09.604Z,22.30
2022-08-12T23:48:38.950Z,22.20
2022-08-12T23:51:22.852Z,22.30
2022-08-12T23:54:00.241Z,22.30
2022-08-12T23:56:29.121Z,22.20
2022-08-12T23:58:58.437Z,22.00
